CSB0104 EPGD-EPSC
Flight info
| Callsign | CSB0104 |
|---|---|
| Flight time | 0h 31m |
| Altitude | 20000 |
| Route | DEXIR T671 AGODU L733 ELTUB |
| Aircraft | A320/M-SDE3FGHIRWY/LB1 |
Departure
| Time | 2026-05-04 12:12 |
|---|---|
| Airport | Gdańsk Lech Wałęsa Airport (EPGD) |
Arrival
| Time | 2026-05-04 12:44 |
|---|---|
| Airport | Solidarity Szczecin–Goleniów Airport (EPSC) |
| Time | Latitude | Longitude | Altitude | Speed | Heading |
|---|---|---|---|---|---|
| 2026-05-04 11:43 | 54.38098 | 18.46675 | 460 ft | 0 kts | 23° |
| 2026-05-04 12:03 | 54.38091 | 18.46670 | 458 ft | 4 kts | 27° |
| 2026-05-04 12:03 | 54.38071 | 18.46642 | 458 ft | 4 kts | 56° |
| 2026-05-04 12:03 | 54.38062 | 18.46619 | 457 ft | 1 kts | 58° |
| 2026-05-04 12:06 | 54.38063 | 18.46625 | 457 ft | 2 kts | 73° |
| 2026-05-04 12:06 | 54.38048 | 18.46647 | 450 ft | 3 kts | 169° |
| 2026-05-04 12:06 | 54.38026 | 18.46618 | 469 ft | 7 kts | 221° |
| 2026-05-04 12:07 | 54.37987 | 18.46586 | 459 ft | 5 kts | 193° |
| 2026-05-04 12:07 | 54.37947 | 18.46602 | 459 ft | 9 kts | 141° |
| 2026-05-04 12:07 | 54.37913 | 18.46713 | 459 ft | 10 kts | 112° |
| 2026-05-04 12:07 | 54.37887 | 18.46822 | 459 ft | 10 kts | 113° |
| 2026-05-04 12:08 | 54.37838 | 18.47015 | 459 ft | 23 kts | 114° |
| 2026-05-04 12:08 | 54.37779 | 18.47257 | 460 ft | 21 kts | 113° |
| 2026-05-04 12:08 | 54.37725 | 18.47474 | 462 ft | 18 kts | 113° |
| 2026-05-04 12:08 | 54.37680 | 18.47655 | 465 ft | 15 kts | 113° |
| 2026-05-04 12:09 | 54.37638 | 18.47826 | 468 ft | 17 kts | 113° |
| 2026-05-04 12:09 | 54.37593 | 18.48007 | 472 ft | 15 kts | 113° |
| 2026-05-04 12:09 | 54.37549 | 18.48184 | 476 ft | 18 kts | 113° |
| 2026-05-04 12:09 | 54.37496 | 18.48396 | 479 ft | 18 kts | 113° |
| 2026-05-04 12:10 | 54.37455 | 18.48560 | 483 ft | 12 kts | 113° |
| 2026-05-04 12:10 | 54.37415 | 18.48651 | 488 ft | 8 kts | 163° |
| 2026-05-04 12:10 | 54.37368 | 18.48638 | 491 ft | 9 kts | 203° |
| 2026-05-04 12:10 | 54.37306 | 18.48591 | 489 ft | 8 kts | 205° |
| 2026-05-04 12:11 | 54.37282 | 18.48542 | 488 ft | 4 kts | 276° |
| 2026-05-04 12:11 | 54.37296 | 18.48485 | 487 ft | 7 kts | 294° |
| 2026-05-04 12:11 | 54.37348 | 18.48278 | 478 ft | 46 kts | 293° |
| 2026-05-04 12:11 | 54.37573 | 18.47377 | 464 ft | 115 kts | 293° |
| 2026-05-04 12:12 | 54.37944 | 18.45866 | 639 ft | 149 kts | 293° |
| 2026-05-04 12:12 | 54.38343 | 18.44186 | 1347 ft | 153 kts | 290° |
| 2026-05-04 12:12 | 54.38766 | 18.42494 | 2123 ft | 155 kts | 291° |
| 2026-05-04 12:12 | 54.39211 | 18.40744 | 2712 ft | 171 kts | 288° |
| 2026-05-04 12:13 | 54.39708 | 18.38674 | 3137 ft | 197 kts | 289° |
| 2026-05-04 12:14 | 54.43110 | 18.21626 | 8527 ft | 219 kts | 251° |
| 2026-05-04 12:15 | 54.42336 | 18.19340 | 9140 ft | 234 kts | 227° |
| 2026-05-04 12:15 | 54.40874 | 18.17805 | 9582 ft | 260 kts | 207° |
| 2026-05-04 12:15 | 54.39166 | 18.16608 | 10190 ft | 273 kts | 207° |
| 2026-05-04 12:15 | 54.37342 | 18.15304 | 10465 ft | 295 kts | 209° |
| 2026-05-04 12:16 | 54.35630 | 18.13300 | 10934 ft | 302 kts | 228° |
| 2026-05-04 12:16 | 54.34429 | 18.10406 | 11652 ft | 304 kts | 246° |
| 2026-05-04 12:16 | 54.33665 | 18.06952 | 12434 ft | 308 kts | 251° |
| 2026-05-04 12:16 | 54.32956 | 18.03524 | 13201 ft | 311 kts | 251° |
| 2026-05-04 12:17 | 54.32234 | 18.00001 | 13962 ft | 315 kts | 251° |
| 2026-05-04 12:17 | 54.31505 | 17.96438 | 14643 ft | 318 kts | 251° |
| 2026-05-04 12:17 | 54.30754 | 17.92799 | 15362 ft | 321 kts | 251° |
| 2026-05-04 12:17 | 54.30003 | 17.89185 | 16035 ft | 324 kts | 250° |
| 2026-05-04 12:18 | 54.29244 | 17.85539 | 16716 ft | 327 kts | 251° |
| 2026-05-04 12:18 | 54.28508 | 17.81901 | 17380 ft | 330 kts | 252° |
| 2026-05-04 12:18 | 54.27838 | 17.78132 | 18050 ft | 332 kts | 254° |
| 2026-05-04 12:18 | 54.27217 | 17.74302 | 18647 ft | 335 kts | 255° |
| 2026-05-04 12:19 | 54.26610 | 17.70434 | 19227 ft | 338 kts | 255° |
| 2026-05-04 12:19 | 54.25994 | 17.66528 | 19737 ft | 341 kts | 254° |
| 2026-05-04 12:19 | 54.25367 | 17.62613 | 19889 ft | 341 kts | 254° |
| 2026-05-04 12:19 | 54.24738 | 17.58764 | 19919 ft | 333 kts | 254° |
| 2026-05-04 12:20 | 54.24109 | 17.54972 | 19924 ft | 331 kts | 253° |
| 2026-05-04 12:20 | 54.23476 | 17.51194 | 19928 ft | 331 kts | 253° |
| 2026-05-04 12:20 | 54.22843 | 17.47415 | 19925 ft | 330 kts | 253° |
| 2026-05-04 12:20 | 54.22082 | 17.43716 | 19924 ft | 330 kts | 245° |
| 2026-05-04 12:21 | 54.21061 | 17.40197 | 19932 ft | 330 kts | 244° |
| 2026-05-04 12:21 | 54.20032 | 17.36690 | 19931 ft | 331 kts | 244° |
| 2026-05-04 12:21 | 54.19002 | 17.33181 | 19927 ft | 331 kts | 244° |
| 2026-05-04 12:21 | 54.17971 | 17.29669 | 19927 ft | 330 kts | 244° |
| 2026-05-04 12:22 | 54.16940 | 17.26167 | 19930 ft | 330 kts | 244° |
| 2026-05-04 12:22 | 54.15907 | 17.22666 | 19929 ft | 331 kts | 244° |
| 2026-05-04 12:22 | 54.14870 | 17.19157 | 19935 ft | 331 kts | 244° |
| 2026-05-04 12:22 | 54.13838 | 17.15658 | 19935 ft | 331 kts | 244° |
| 2026-05-04 12:23 | 54.12803 | 17.12153 | 19935 ft | 331 kts | 244° |
| 2026-05-04 12:23 | 54.11768 | 17.08651 | 19936 ft | 331 kts | 244° |
| 2026-05-04 12:23 | 54.10732 | 17.05150 | 19935 ft | 331 kts | 244° |
| 2026-05-04 12:23 | 54.09754 | 17.01607 | 19938 ft | 331 kts | 250° |
| 2026-05-04 12:24 | 54.09092 | 16.97859 | 19938 ft | 331 kts | 254° |
| 2026-05-04 12:24 | 54.08469 | 16.94086 | 19940 ft | 331 kts | 253° |
| 2026-05-04 12:24 | 54.07842 | 16.90319 | 19944 ft | 331 kts | 253° |
| 2026-05-04 12:24 | 54.07212 | 16.86552 | 19942 ft | 331 kts | 253° |
| 2026-05-04 12:25 | 54.06581 | 16.82783 | 19946 ft | 331 kts | 253° |
| 2026-05-04 12:25 | 54.05951 | 16.79018 | 19947 ft | 331 kts | 253° |
| 2026-05-04 12:25 | 54.05321 | 16.75249 | 19946 ft | 331 kts | 253° |
| 2026-05-04 12:25 | 54.04693 | 16.71487 | 19951 ft | 331 kts | 253° |
| 2026-05-04 12:26 | 54.04060 | 16.67715 | 19951 ft | 331 kts | 253° |
| 2026-05-04 12:26 | 54.03426 | 16.63953 | 19955 ft | 331 kts | 253° |
| 2026-05-04 12:26 | 54.02791 | 16.60183 | 19943 ft | 331 kts | 253° |
| 2026-05-04 12:26 | 54.02153 | 16.56427 | 19943 ft | 331 kts | 253° |
| 2026-05-04 12:27 | 54.01512 | 16.52670 | 19949 ft | 331 kts | 253° |
| 2026-05-04 12:27 | 54.00872 | 16.48913 | 19959 ft | 331 kts | 253° |
| 2026-05-04 12:27 | 54.00237 | 16.45208 | 19947 ft | 331 kts | 253° |
| 2026-05-04 12:27 | 53.99594 | 16.41452 | 19949 ft | 331 kts | 253° |
| 2026-05-04 12:28 | 53.98949 | 16.37693 | 19952 ft | 331 kts | 253° |
| 2026-05-04 12:28 | 53.98305 | 16.33942 | 19952 ft | 331 kts | 253° |
| 2026-05-04 12:28 | 53.97660 | 16.30192 | 19951 ft | 331 kts | 253° |
| 2026-05-04 12:28 | 53.97012 | 16.26440 | 19961 ft | 331 kts | 253° |
| 2026-05-04 12:29 | 53.96352 | 16.22642 | 19951 ft | 331 kts | 253° |
| 2026-05-04 12:29 | 53.95701 | 16.18895 | 19953 ft | 331 kts | 253° |
| 2026-05-04 12:29 | 53.95053 | 16.15155 | 19915 ft | 329 kts | 253° |
| 2026-05-04 12:29 | 53.94300 | 16.11515 | 19452 ft | 326 kts | 245° |
| 2026-05-04 12:30 | 53.93135 | 16.08214 | 18980 ft | 326 kts | 238° |
| 2026-05-04 12:30 | 53.91890 | 16.05018 | 18519 ft | 324 kts | 238° |
| 2026-05-04 12:30 | 53.90647 | 16.01828 | 18033 ft | 323 kts | 238° |
| 2026-05-04 12:30 | 53.89412 | 15.98657 | 17561 ft | 321 kts | 238° |
| 2026-05-04 12:31 | 53.88188 | 15.95511 | 17110 ft | 318 kts | 238° |
| 2026-05-04 12:31 | 53.86977 | 15.92397 | 16667 ft | 316 kts | 238° |
| 2026-05-04 12:31 | 53.85772 | 15.89300 | 16235 ft | 313 kts | 238° |
| 2026-05-04 12:31 | 53.84573 | 15.86227 | 15809 ft | 312 kts | 238° |
| 2026-05-04 12:32 | 53.83378 | 15.83168 | 15390 ft | 311 kts | 238° |
| 2026-05-04 12:32 | 53.81003 | 15.77106 | 14532 ft | 308 kts | 238° |
| 2026-05-04 12:32 | 53.79820 | 15.74092 | 14116 ft | 307 kts | 238° |
| 2026-05-04 12:33 | 53.78636 | 15.71082 | 13673 ft | 307 kts | 238° |
| 2026-05-04 12:33 | 53.77457 | 15.68087 | 13225 ft | 305 kts | 237° |
| 2026-05-04 12:33 | 53.76285 | 15.65114 | 12796 ft | 303 kts | 237° |
| 2026-05-04 12:33 | 53.75124 | 15.62164 | 12367 ft | 300 kts | 237° |
| 2026-05-04 12:34 | 53.73971 | 15.59238 | 11951 ft | 298 kts | 237° |
| 2026-05-04 12:34 | 53.72828 | 15.56338 | 11525 ft | 296 kts | 237° |
| 2026-05-04 12:34 | 53.71689 | 15.53458 | 11105 ft | 294 kts | 237° |
| 2026-05-04 12:34 | 53.70554 | 15.50594 | 10674 ft | 293 kts | 237° |
| 2026-05-04 12:35 | 53.69425 | 15.47750 | 10249 ft | 292 kts | 237° |
| 2026-05-04 12:35 | 53.68303 | 15.44926 | 10006 ft | 285 kts | 237° |
| 2026-05-04 12:35 | 53.67058 | 15.42406 | 9914 ft | 276 kts | 224° |
| 2026-05-04 12:35 | 53.65498 | 15.40561 | 9523 ft | 273 kts | 212° |
| 2026-05-04 12:36 | 53.63875 | 15.39029 | 9119 ft | 263 kts | 212° |
| 2026-05-04 12:36 | 53.62287 | 15.37527 | 8748 ft | 262 kts | 212° |
| 2026-05-04 12:36 | 53.60707 | 15.36026 | 8376 ft | 260 kts | 213° |
| 2026-05-04 12:36 | 53.59143 | 15.34538 | 8000 ft | 257 kts | 213° |
| 2026-05-04 12:37 | 53.57587 | 15.33058 | 7656 ft | 256 kts | 213° |
| 2026-05-04 12:37 | 53.56036 | 15.31583 | 7313 ft | 255 kts | 212° |
| 2026-05-04 12:37 | 53.54492 | 15.30117 | 6953 ft | 254 kts | 212° |
| 2026-05-04 12:37 | 53.52956 | 15.28659 | 6585 ft | 254 kts | 212° |
| 2026-05-04 12:38 | 53.51421 | 15.27205 | 6218 ft | 253 kts | 212° |
| 2026-05-04 12:38 | 53.50000 | 15.25518 | 5837 ft | 249 kts | 224° |
| 2026-05-04 12:38 | 53.48690 | 15.23594 | 5438 ft | 250 kts | 224° |
| 2026-05-04 12:38 | 53.47382 | 15.21681 | 5067 ft | 249 kts | 224° |
| 2026-05-04 12:39 | 53.46087 | 15.19758 | 4685 ft | 248 kts | 227° |
| 2026-05-04 12:39 | 53.45283 | 15.17308 | 4299 ft | 240 kts | 263° |
| 2026-05-04 12:39 | 53.45556 | 15.14645 | 3919 ft | 231 kts | 296° |
| 2026-05-04 12:39 | 53.46463 | 15.12492 | 3577 ft | 221 kts | 308° |
| 2026-05-04 12:40 | 53.47495 | 15.10642 | 3256 ft | 215 kts | 311° |
| 2026-05-04 12:40 | 53.48541 | 15.08851 | 2939 ft | 215 kts | 311° |
| 2026-05-04 12:40 | 53.49254 | 15.07704 | 2700 ft | 214 kts | 314° |
| 2026-05-04 12:40 | 53.50282 | 15.05985 | 2399 ft | 202 kts | 311° |
| 2026-05-04 12:41 | 53.51199 | 15.04281 | 2138 ft | 191 kts | 308° |
| 2026-05-04 12:41 | 53.52052 | 15.02647 | 1900 ft | 180 kts | 308° |
| 2026-05-04 12:41 | 53.52854 | 15.01100 | 1644 ft | 171 kts | 309° |
| 2026-05-04 12:41 | 53.53602 | 14.99655 | 1434 ft | 156 kts | 309° |
| 2026-05-04 12:42 | 53.54275 | 14.98356 | 1228 ft | 141 kts | 309° |
| 2026-05-04 12:42 | 53.54899 | 14.97149 | 1052 ft | 134 kts | 308° |
| 2026-05-04 12:42 | 53.55500 | 14.95987 | 842 ft | 130 kts | 308° |
| 2026-05-04 12:42 | 53.56095 | 14.94831 | 715 ft | 131 kts | 309° |
| 2026-05-04 12:43 | 53.56688 | 14.93674 | 525 ft | 129 kts | 309° |
| 2026-05-04 12:43 | 53.57288 | 14.92519 | 346 ft | 132 kts | 309° |
| 2026-05-04 12:43 | 53.57886 | 14.91359 | 184 ft | 129 kts | 310° |
| 2026-05-04 12:43 | 53.58411 | 14.90339 | 151 ft | 96 kts | 310° |
| 2026-05-04 12:44 | 53.58734 | 14.89708 | 140 ft | 46 kts | 310° |
| 2026-05-04 12:44 | 53.58875 | 14.89436 | 138 ft | 26 kts | 311° |
| 2026-05-04 12:44 | 53.58965 | 14.89266 | 136 ft | 18 kts | 312° |
| 2026-05-04 12:44 | 53.59028 | 14.89148 | 135 ft | 10 kts | 312° |
| 2026-05-04 12:45 | 53.59082 | 14.89122 | 133 ft | 6 kts | 30° |
| 2026-05-04 12:45 | 53.59114 | 14.89175 | 132 ft | 6 kts | 43° |
| 2026-05-04 12:45 | 53.59142 | 14.89220 | 132 ft | 5 kts | 43° |
| 2026-05-04 12:45 | 53.59167 | 14.89257 | 132 ft | 4 kts | 42° |
| 2026-05-04 12:46 | 53.59187 | 14.89290 | 132 ft | 4 kts | 45° |
| 2026-05-04 12:46 | 53.59203 | 14.89318 | 132 ft | 3 kts | 47° |
| 2026-05-04 12:46 | 53.59220 | 14.89349 | 132 ft | 4 kts | 48° |
| 2026-05-04 12:46 | 53.59234 | 14.89376 | 132 ft | 3 kts | 48° |
| 2026-05-04 12:47 | 53.59244 | 14.89396 | 132 ft | 2 kts | 49° |
| 2026-05-04 12:47 | 53.59249 | 14.89405 | 132 ft | 0 kts | 49° |